createdAt,value
2022-08-26T00:00:24.090Z,46.14
2022-08-26T00:02:28.718Z,46.15
2022-08-26T00:04:32.540Z,46.58
2022-08-26T00:06:36.119Z,46.74
2022-08-26T00:08:40.197Z,46.73
2022-08-26T00:10:45.098Z,47.08
2022-08-26T00:12:48.547Z,46.86
2022-08-26T00:14:53.363Z,47.69
2022-08-26T00:16:57.045Z,47.74
2022-08-26T00:19:01.158Z,47.92
2022-08-26T00:21:06.167Z,48.19
2022-08-26T00:23:10.211Z,47.43
2022-08-26T00:25:13.955Z,47.23
2022-08-26T00:27:20.266Z,46.57
2022-08-26T00:29:24.237Z,47.49
2022-08-26T00:31:31.151Z,47.19
2022-08-26T00:33:34.848Z,46.99
2022-08-26T00:35:38.282Z,48.09
2022-08-26T00:37:48.809Z,48.79
2022-08-26T00:39:52.837Z,49.33
2022-08-26T00:41:56.467Z,49.98
2022-08-26T00:44:00.095Z,50.46
2022-08-26T00:46:09.389Z,50.12
2022-08-26T00:48:17.120Z,50.37
2022-08-26T00:50:25.397Z,50.76
2022-08-26T00:52:30.511Z,50.96
2022-08-26T00:54:40.419Z,51.18
2022-08-26T00:56:52.882Z,52.09
2022-08-26T00:58:59.986Z,52.10
2022-08-26T01:01:03.590Z,52.30
2022-08-26T01:03:12.632Z,52.87
2022-08-26T01:05:19.528Z,52.71
2022-08-26T01:07:23.383Z,54.08
2022-08-26T01:09:27.228Z,54.58
2022-08-26T01:11:31.785Z,55.39
2022-08-26T01:13:38.024Z,56.12
2022-08-26T01:15:45.571Z,56.13
2022-08-26T01:17:49.794Z,57.36
2022-08-26T01:19:59.619Z,58.25
2022-08-26T01:22:11.225Z,58.09
2022-08-26T01:24:17.908Z,59.04
2022-08-26T01:26:25.946Z,58.70
2022-08-26T01:28:34.268Z,58.92
2022-08-26T01:30:42.147Z,59.14
2022-08-26T01:32:47.132Z,58.93
2022-08-26T01:34:50.611Z,59.04
2022-08-26T01:37:02.537Z,59.69
2022-08-26T01:39:08.390Z,60.07
2022-08-26T01:41:19.606Z,60.39
2022-08-26T01:43:26.141Z,60.67
2022-08-26T01:45:34.177Z,60.82
2022-08-26T01:47:39.678Z,61.25
2022-08-26T01:49:47.458Z,62.25
2022-08-26T01:51:57.605Z,62.81
2022-08-26T01:54:01.909Z,63.50
2022-08-26T01:56:07.356Z,63.00
2022-08-26T01:58:17.590Z,63.45
2022-08-26T02:00:24.577Z,64.80
2022-08-26T02:02:28.744Z,64.93
2022-08-26T02:04:38.693Z,65.15
2022-08-26T02:06:43.406Z,65.27
2022-08-26T02:08:50.251Z,64.97
2022-08-26T02:10:55.211Z,65.29
2022-08-26T02:12:58.969Z,66.37
2022-08-26T02:15:07.696Z,67.03
2022-08-26T02:17:15.935Z,67.41
2022-08-26T02:19:23.737Z,67.20
2022-08-26T02:21:27.426Z,67.13
2022-08-26T02:23:30.975Z,67.40
2022-08-26T02:25:41.665Z,67.38
2022-08-26T02:27:47.477Z,66.95
2022-08-26T02:29:56.481Z,67.12
2022-08-26T02:32:01.352Z,67.62
2022-08-26T02:34:12.504Z,67.80
2022-08-26T02:36:21.054Z,67.97
2022-08-26T02:38:24.520Z,68.03
2022-08-26T02:40:30.654Z,68.56
2022-08-26T02:42:34.743Z,68.45
2022-08-26T02:44:39.006Z,69.20
2022-08-26T02:46:46.863Z,68.55
2022-08-26T02:48:52.411Z,69.47
2022-08-26T02:50:55.818Z,68.99
2022-08-26T02:52:59.336Z,69.14
2022-08-26T02:55:02.760Z,68.59
2022-08-26T02:57:06.392Z,68.57
2022-08-26T02:59:12.568Z,68.54
2022-08-26T03:01:24.046Z,68.41
2022-08-26T03:03:28.312Z,69.22
2022-08-26T03:05:33.473Z,69.28
2022-08-26T03:07:37.524Z,69.30
2022-08-26T03:09:41.023Z,69.03
2022-08-26T03:11:44.458Z,69.32
2022-08-26T03:13:48.103Z,69.67
2022-08-26T03:15:51.583Z,69.44
2022-08-26T03:17:56.559Z,70.12
2022-08-26T03:20:00.711Z,69.70
2022-08-26T03:22:07.160Z,69.90
2022-08-26T03:24:12.545Z,70.29
2022-08-26T03:26:17.725Z,70.35
2022-08-26T03:28:21.412Z,70.77
2022-08-26T03:30:45.339Z,70.75
2022-08-26T03:32:49.380Z,70.56
2022-08-26T03:34:53.964Z,70.48
2022-08-26T03:36:57.396Z,70.18
2022-08-26T03:39:02.140Z,70.50
2022-08-26T03:41:05.967Z,71.04
2022-08-26T03:43:11.747Z,72.10
2022-08-26T03:45:17.307Z,72.44
2022-08-26T03:47:21.906Z,73.26
2022-08-26T03:49:25.425Z,73.39
2022-08-26T03:51:32.978Z,73.07
2022-08-26T03:53:37.979Z,73.19
2022-08-26T03:55:43.424Z,73.29
2022-08-26T03:57:47.409Z,73.74
2022-08-26T03:59:51.377Z,73.72
2022-08-26T04:01:55.456Z,73.42
2022-08-26T04:04:00.163Z,73.34
2022-08-26T04:06:04.077Z,73.39
2022-08-26T04:08:08.052Z,73.59
2022-08-26T04:10:12.567Z,73.14
2022-08-26T04:12:17.796Z,73.20
2022-08-26T04:14:23.863Z,73.24
2022-08-26T04:16:31.581Z,73.64
2022-08-26T04:18:37.964Z,73.68
2022-08-26T04:20:50.639Z,73.52
2022-08-26T04:22:54.334Z,73.28
2022-08-26T04:24:57.943Z,73.66
2022-08-26T04:27:03.379Z,73.67
2022-08-26T04:29:11.220Z,73.71
2022-08-26T04:31:16.402Z,73.55
2022-08-26T04:33:32.231Z,72.90
2022-08-26T04:35:37.118Z,72.93
2022-08-26T04:37:43.006Z,73.46
2022-08-26T04:39:46.611Z,72.98
2022-08-26T04:41:50.820Z,72.43
2022-08-26T04:43:54.679Z,73.17
2022-08-26T04:46:02.217Z,73.55
2022-08-26T04:48:05.962Z,73.85
2022-08-26T04:50:15.260Z,73.93
2022-08-26T04:52:21.477Z,73.01
2022-08-26T04:54:26.334Z,73.96
2022-08-26T04:56:33.958Z,74.05
2022-08-26T04:58:37.435Z,74.31
2022-08-26T05:00:40.956Z,73.96
2022-08-26T05:02:46.049Z,74.16
2022-08-26T05:04:49.674Z,73.97
2022-08-26T05:07:02.469Z,73.42
2022-08-26T05:09:06.589Z,72.95
2022-08-26T05:11:10.650Z,73.29
2022-08-26T05:13:15.667Z,73.50
2022-08-26T05:15:19.488Z,73.48
2022-08-26T05:17:23.477Z,73.10
2022-08-26T05:19:28.516Z,72.91
2022-08-26T05:21:31.959Z,73.56
2022-08-26T05:23:36.938Z,72.75
2022-08-26T05:25:41.911Z,73.20
2022-08-26T05:27:45.598Z,73.28
2022-08-26T05:29:54.550Z,73.50
2022-08-26T05:31:58.346Z,73.41
2022-08-26T05:34:05.920Z,73.89
2022-08-26T05:36:15.135Z,73.15
2022-08-26T05:38:20.395Z,72.79
2022-08-26T05:40:23.868Z,73.28
2022-08-26T05:42:29.530Z,73.33
2022-08-26T05:44:35.900Z,73.06
2022-08-26T05:46:56.528Z,73.67
2022-08-26T05:49:00.170Z,72.96
2022-08-26T05:51:05.539Z,72.88
2022-08-26T05:53:11.924Z,72.86
2022-08-26T05:55:16.680Z,72.95
2022-08-26T05:57:23.149Z,72.60
2022-08-26T05:59:27.008Z,72.46
2022-08-26T06:01:30.829Z,72.41
2022-08-26T06:03:40.829Z,73.46
2022-08-26T06:05:44.342Z,72.60
2022-08-26T06:08:05.720Z,72.81
2022-08-26T06:10:31.682Z,72.77
2022-08-26T06:12:36.204Z,73.12
2022-08-26T06:14:39.600Z,71.85
2022-08-26T06:16:45.085Z,72.38
2022-08-26T06:18:48.884Z,71.93
2022-08-26T06:20:57.999Z,72.20
2022-08-26T06:23:19.083Z,72.22
2022-08-26T06:25:39.195Z,71.86
2022-08-26T06:27:42.682Z,71.93
2022-08-26T06:29:47.105Z,71.55
2022-08-26T06:31:50.644Z,71.60
2022-08-26T06:33:55.794Z,71.17
2022-08-26T06:36:01.111Z,71.79
2022-08-26T06:38:04.763Z,71.81
2022-08-26T06:40:09.768Z,71.86
2022-08-26T06:42:16.325Z,71.87
2022-08-26T06:44:20.945Z,71.98
2022-08-26T06:46:24.750Z,71.99
2022-08-26T06:48:29.762Z,72.02
2022-08-26T06:50:33.324Z,71.17
2022-08-26T06:52:36.819Z,70.72
2022-08-26T06:54:43.111Z,70.92
2022-08-26T06:56:47.998Z,71.18
2022-08-26T06:58:53.664Z,71.07
2022-08-26T07:01:03.089Z,71.35
2022-08-26T07:03:13.360Z,71.27
2022-08-26T07:05:16.899Z,71.01
2022-08-26T07:07:21.645Z,71.00
2022-08-26T07:09:28.064Z,71.29
2022-08-26T07:11:32.381Z,70.68
2022-08-26T07:13:37.653Z,70.97
2022-08-26T07:15:43.500Z,70.75
2022-08-26T07:17:47.821Z,70.69
2022-08-26T07:19:51.641Z,70.31
2022-08-26T07:21:56.236Z,70.50
2022-08-26T07:24:01.326Z,70.10
2022-08-26T07:26:06.425Z,70.09
2022-08-26T07:28:10.249Z,70.47
2022-08-26T07:30:15.146Z,70.63
2022-08-26T07:32:21.005Z,70.65
2022-08-26T07:34:27.429Z,70.70
2022-08-26T07:36:31.360Z,70.59
2022-08-26T07:38:36.243Z,70.69
2022-08-26T07:40:40.700Z,70.25
2022-08-26T07:42:44.460Z,70.27
2022-08-26T07:44:48.208Z,70.03
2022-08-26T07:46:53.118Z,70.14
2022-08-26T07:48:59.389Z,69.88
2022-08-26T07:51:02.946Z,70.06
2022-08-26T07:53:06.482Z,70.32
2022-08-26T07:55:14.401Z,70.30
2022-08-26T07:57:19.153Z,70.48
2022-08-26T07:59:23.325Z,69.73
2022-08-26T08:01:28.996Z,70.16
2022-08-26T08:03:34.793Z,69.93
2022-08-26T08:05:41.114Z,70.49
2022-08-26T08:07:45.629Z,70.76
2022-08-26T08:09:51.271Z,70.22
2022-08-26T08:11:54.789Z,70.21
2022-08-26T08:14:00.745Z,70.61
2022-08-26T08:16:04.997Z,71.12
2022-08-26T08:18:15.788Z,70.36
2022-08-26T08:20:20.562Z,70.64
2022-08-26T08:22:25.485Z,70.46
2022-08-26T08:24:30.799Z,70.45
2022-08-26T08:26:35.191Z,70.41
2022-08-26T08:28:39.711Z,70.69
2022-08-26T08:30:45.161Z,70.96
2022-08-26T08:32:49.277Z,70.91
2022-08-26T08:34:52.915Z,70.32
2022-08-26T08:36:57.597Z,71.03
2022-08-26T08:39:02.354Z,70.80
2022-08-26T08:41:05.794Z,70.43
2022-08-26T08:43:13.531Z,70.36
2022-08-26T08:45:23.061Z,70.47
2022-08-26T08:47:32.154Z,70.29
2022-08-26T08:49:35.993Z,70.76
2022-08-26T08:51:48.040Z,71.01
2022-08-26T08:53:55.717Z,70.74
2022-08-26T08:56:08.821Z,70.30
2022-08-26T08:58:19.135Z,69.74
2022-08-26T09:00:30.349Z,69.72
2022-08-26T09:02:41.680Z,69.23
2022-08-26T09:04:57.508Z,69.35
2022-08-26T09:07:04.182Z,69.35
2022-08-26T09:09:15.248Z,69.99
2022-08-26T09:11:21.387Z,69.97
2022-08-26T09:13:27.555Z,69.73
2022-08-26T09:15:40.485Z,68.82
2022-08-26T09:17:53.362Z,69.18
2022-08-26T09:20:08.416Z,68.46
2022-08-26T09:22:30.161Z,67.94
2022-08-26T09:24:41.849Z,67.96
2022-08-26T09:26:53.048Z,67.53
2022-08-26T09:28:58.473Z,67.36
2022-08-26T09:31:13.016Z,67.64
2022-08-26T09:33:19.969Z,67.35
2022-08-26T09:35:26.743Z,67.41
2022-08-26T09:37:40.494Z,67.58
2022-08-26T09:39:44.526Z,67.14
2022-08-26T09:42:04.868Z,66.76
2022-08-26T09:44:17.659Z,67.21
2022-08-26T09:46:28.920Z,67.28
2022-08-26T09:48:36.259Z,66.90
2022-08-26T09:50:53.106Z,66.20
2022-08-26T09:53:16.931Z,65.27
2022-08-26T09:55:24.216Z,65.48
2022-08-26T09:57:31.280Z,65.43
2022-08-26T09:59:34.736Z,65.13
2022-08-26T10:01:41.854Z,65.15
2022-08-26T10:03:47.086Z,64.85
2022-08-26T10:05:59.358Z,64.57
2022-08-26T10:08:18.420Z,65.17
2022-08-26T10:10:26.174Z,65.66
2022-08-26T10:12:35.797Z,65.76
2022-08-26T10:17:06.846Z,66.88
2022-08-26T10:19:16.584Z,67.07
2022-08-26T10:21:26.661Z,67.58
2022-08-26T10:23:34.626Z,67.01
2022-08-26T10:25:44.145Z,66.11
2022-08-26T10:27:55.673Z,66.28
2022-08-26T10:30:06.550Z,66.51
2022-08-26T10:32:15.270Z,66.07
2022-08-26T10:34:21.148Z,66.68
2022-08-26T10:37:05.156Z,66.01
2022-08-26T10:39:15.557Z,65.08
2022-08-26T10:41:24.210Z,65.23
2022-08-26T10:43:31.758Z,64.67
2022-08-26T10:45:43.610Z,65.01
2022-08-26T10:47:53.013Z,64.55
2022-08-26T10:50:02.938Z,64.43
2022-08-26T10:52:16.499Z,64.06
2022-08-26T10:54:29.904Z,63.91
2022-08-26T10:56:44.801Z,63.38
2022-08-26T10:59:01.185Z,63.61
2022-08-26T11:01:29.059Z,63.48
2022-08-26T11:03:42.584Z,62.29
2022-08-26T11:05:46.110Z,62.19
2022-08-26T11:07:52.739Z,61.63
2022-08-26T11:09:59.559Z,61.76
2022-08-26T11:12:06.843Z,61.78
2022-08-26T11:14:42.078Z,62.34
2022-08-26T11:17:01.243Z,62.13
2022-08-26T11:19:06.505Z,61.61
2022-08-26T11:21:46.066Z,60.77
2022-08-26T11:23:52.897Z,61.31
2022-08-26T11:26:35.377Z,61.18
2022-08-26T11:28:44.610Z,61.58
2022-08-26T11:30:57.523Z,61.75
2022-08-26T11:33:02.024Z,61.81
2022-08-26T11:35:08.711Z,61.50
2022-08-26T11:37:18.007Z,61.39
2022-08-26T11:39:25.845Z,61.83
2022-08-26T11:41:31.363Z,62.24
2022-08-26T11:43:35.069Z,62.12
2022-08-26T11:45:41.556Z,62.08
2022-08-26T11:47:49.359Z,62.24
2022-08-26T11:50:07.985Z,62.54
2022-08-26T11:52:14.731Z,62.06
2022-08-26T11:54:30.472Z,61.71
2022-08-26T11:56:42.707Z,61.38
2022-08-26T11:58:47.886Z,60.77
2022-08-26T12:00:53.914Z,60.39
2022-08-26T12:03:02.706Z,60.13
2022-08-26T12:05:09.012Z,59.13
2022-08-26T12:07:12.856Z,58.12
2022-08-26T12:09:23.677Z,58.20
2022-08-26T12:11:31.033Z,57.60
2022-08-26T12:13:38.980Z,58.91
2022-08-26T12:15:42.733Z,58.22
2022-08-26T12:17:51.710Z,57.99
2022-08-26T12:19:58.385Z,58.60
2022-08-26T12:22:05.933Z,58.50
2022-08-26T12:24:09.879Z,58.51
2022-08-26T12:26:21.849Z,59.04
2022-08-26T12:28:25.579Z,58.35
2022-08-26T12:30:29.025Z,58.99
2022-08-26T12:32:35.341Z,58.83
2022-08-26T12:34:39.807Z,59.21
2022-08-26T12:36:48.142Z,59.08
2022-08-26T12:38:53.706Z,59.30
2022-08-26T12:41:00.003Z,59.22
2022-08-26T12:43:05.434Z,59.36
2022-08-26T12:45:09.670Z,59.00
2022-08-26T12:47:23.400Z,58.71
2022-08-26T12:49:47.896Z,59.46
2022-08-26T12:51:52.747Z,59.61
2022-08-26T12:53:56.564Z,59.67
2022-08-26T12:56:03.483Z,59.77
2022-08-26T12:58:21.739Z,59.65
2022-08-26T13:00:36.406Z,59.77
2022-08-26T13:02:40.272Z,59.80
2022-08-26T13:04:46.135Z,59.33
2022-08-26T13:06:49.589Z,59.28
2022-08-26T13:08:55.929Z,59.69
2022-08-26T13:11:05.347Z,58.57
2022-08-26T13:13:08.845Z,58.52
2022-08-26T13:15:13.248Z,58.51
2022-08-26T13:17:16.967Z,58.55
2022-08-26T13:19:23.479Z,57.84
2022-08-26T13:21:28.951Z,58.60
2022-08-26T13:23:38.393Z,59.43
2022-08-26T13:25:45.456Z,61.35
2022-08-26T13:27:48.960Z,62.10
2022-08-26T13:29:52.779Z,62.65
2022-08-26T13:31:56.514Z,63.38
2022-08-26T13:34:01.691Z,63.32
2022-08-26T13:36:05.940Z,63.18
2022-08-26T13:38:14.777Z,62.60
2022-08-26T13:40:36.922Z,63.33
2022-08-26T13:42:50.014Z,63.64
2022-08-26T13:44:57.851Z,63.48
2022-08-26T13:47:03.770Z,63.93
2022-08-26T13:49:07.805Z,64.28
2022-08-26T13:51:11.959Z,64.30
2022-08-26T13:53:16.282Z,64.10
2022-08-26T13:55:19.938Z,63.87
2022-08-26T13:57:24.767Z,63.92
2022-08-26T13:59:29.649Z,63.84
2022-08-26T14:01:34.234Z,63.94
2022-08-26T14:03:37.968Z,64.25
2022-08-26T14:05:41.855Z,64.82
2022-08-26T14:07:45.529Z,65.02
2022-08-26T14:09:49.048Z,64.87
2022-08-26T14:11:54.342Z,64.69
2022-08-26T14:13:58.651Z,65.10
2022-08-26T14:16:05.781Z,64.89
2022-08-26T14:18:13.212Z,64.84
2022-08-26T14:20:24.696Z,64.81
2022-08-26T14:22:29.061Z,64.59
2022-08-26T14:24:32.510Z,65.00
2022-08-26T14:26:39.097Z,65.24
2022-08-26T14:28:42.810Z,65.75
2022-08-26T14:30:52.032Z,65.55
2022-08-26T14:32:59.452Z,65.46
2022-08-26T14:35:03.398Z,64.90
2022-08-26T14:37:07.683Z,65.24
2022-08-26T14:39:14.638Z,65.54
2022-08-26T14:41:19.618Z,65.23
2022-08-26T14:43:23.033Z,65.49
2022-08-26T14:45:31.709Z,65.81
2022-08-26T14:47:35.395Z,65.89
2022-08-26T14:49:40.201Z,66.45
2022-08-26T14:51:43.610Z,66.32
2022-08-26T14:54:04.631Z,66.11
2022-08-26T14:56:08.043Z,65.60
2022-08-26T14:58:11.619Z,65.84
2022-08-26T15:00:15.824Z,65.63
2022-08-26T15:02:33.501Z,65.07
2022-08-26T15:04:37.922Z,63.59
2022-08-26T15:06:42.857Z,62.00
2022-08-26T15:08:46.365Z,61.52
2022-08-26T15:10:50.739Z,61.02
2022-08-26T15:12:54.160Z,61.52
2022-08-26T15:14:57.599Z,61.80
2022-08-26T15:17:01.539Z,61.71
2022-08-26T15:19:05.924Z,61.14
2022-08-26T15:21:09.367Z,60.86
2022-08-26T15:23:14.725Z,60.07
2022-08-26T15:25:18.156Z,59.31
2022-08-26T15:27:21.596Z,59.44
2022-08-26T15:29:25.075Z,59.58
2022-08-26T15:31:31.923Z,59.98
2022-08-26T15:33:36.159Z,59.51
2022-08-26T15:35:40.266Z,59.57
2022-08-26T15:37:46.358Z,60.31
2022-08-26T15:39:52.024Z,59.92
2022-08-26T15:41:56.136Z,60.12
2022-08-26T15:44:02.207Z,60.40
2022-08-26T15:46:11.837Z,60.83
2022-08-26T15:48:16.273Z,60.79
2022-08-26T15:50:20.036Z,60.88
2022-08-26T15:52:23.525Z,61.42
2022-08-26T15:54:26.953Z,61.38
2022-08-26T15:56:34.307Z,61.21
2022-08-26T15:58:38.120Z,61.19
2022-08-26T16:00:42.268Z,60.94
2022-08-26T16:02:45.836Z,61.07
2022-08-26T16:04:49.328Z,61.10
2022-08-26T16:06:53.593Z,61.53
2022-08-26T16:08:58.257Z,61.20
2022-08-26T16:11:04.505Z,61.19
2022-08-26T16:13:11.652Z,60.99
2022-08-26T16:15:18.053Z,60.98
2022-08-26T16:17:21.811Z,61.11
2022-08-26T16:19:25.395Z,60.60
2022-08-26T16:21:29.353Z,60.57
2022-08-26T16:23:32.949Z,60.72
2022-08-26T16:25:36.625Z,60.81
2022-08-26T16:27:40.085Z,61.04
2022-08-26T16:29:44.860Z,60.75
2022-08-26T16:31:51.915Z,60.99
2022-08-26T16:33:55.270Z,60.86
2022-08-26T16:35:59.049Z,60.92
2022-08-26T16:38:02.903Z,61.20
2022-08-26T16:40:08.617Z,61.47
2022-08-26T16:42:12.050Z,61.56
2022-08-26T16:44:15.499Z,61.89
2022-08-26T16:46:22.167Z,61.77
2022-08-26T16:48:26.341Z,61.51
2022-08-26T16:50:30.107Z,61.69
2022-08-26T16:52:34.084Z,60.79
2022-08-26T16:54:37.689Z,61.08
2022-08-26T16:56:41.107Z,61.17
2022-08-26T16:58:44.912Z,61.30
2022-08-26T17:00:48.549Z,61.44
2022-08-26T17:02:53.553Z,61.69
2022-08-26T17:04:56.942Z,61.62
2022-08-26T17:07:01.072Z,61.71
2022-08-26T17:09:04.831Z,61.70
2022-08-26T17:11:09.459Z,62.10
2022-08-26T17:13:12.932Z,62.36
2022-08-26T17:15:27.840Z,61.75
2022-08-26T17:17:31.317Z,61.82
2022-08-26T17:19:41.035Z,61.96
2022-08-26T17:21:50.454Z,61.92
2022-08-26T17:23:54.066Z,62.17
2022-08-26T17:25:57.509Z,62.03
2022-08-26T17:28:01.123Z,62.53
2022-08-26T17:30:06.172Z,62.50
2022-08-26T17:32:09.621Z,62.43
2022-08-26T17:34:12.981Z,62.30
2022-08-26T17:36:18.454Z,62.29
2022-08-26T17:38:22.507Z,62.27
2022-08-26T17:40:29.153Z,62.04
2022-08-26T17:42:32.594Z,62.18
2022-08-26T17:44:36.146Z,62.22
2022-08-26T17:46:39.574Z,62.31
2022-08-26T17:48:43.765Z,62.19
2022-08-26T17:50:49.703Z,62.05
2022-08-26T17:52:54.478Z,61.91
2022-08-26T17:54:58.974Z,61.85
2022-08-26T17:57:02.448Z,61.63
2022-08-26T17:59:05.873Z,61.69
2022-08-26T18:01:11.450Z,61.87
2022-08-26T18:03:15.039Z,61.99
2022-08-26T18:05:18.438Z,61.82
2022-08-26T18:07:21.880Z,62.19
2022-08-26T18:09:26.655Z,61.84
2022-08-26T18:11:31.225Z,62.09
2022-08-26T18:13:34.675Z,62.06
2022-08-26T18:15:40.161Z,62.26
2022-08-26T18:17:44.229Z,61.96
2022-08-26T18:19:47.701Z,62.29
2022-08-26T18:21:51.505Z,62.23
2022-08-26T18:23:55.985Z,62.50
2022-08-26T18:26:00.747Z,62.67
2022-08-26T18:28:04.715Z,62.58
2022-08-26T18:30:16.464Z,63.13
2022-08-26T18:32:20.274Z,63.44
2022-08-26T18:34:23.935Z,62.84
2022-08-26T18:36:37.922Z,63.09
2022-08-26T18:38:41.333Z,63.13
2022-08-26T18:40:46.687Z,63.46
2022-08-26T18:42:53.983Z,63.38
2022-08-26T18:44:57.766Z,63.46
2022-08-26T18:47:01.230Z,63.10
2022-08-26T18:49:05.277Z,63.40
2022-08-26T18:51:12.507Z,63.47
2022-08-26T18:53:17.544Z,63.57
2022-08-26T18:55:21.345Z,63.50
2022-08-26T18:57:24.981Z,63.69
2022-08-26T18:59:30.641Z,63.61
2022-08-26T19:01:35.951Z,64.08
2022-08-26T19:03:39.509Z,64.28
2022-08-26T19:05:43.060Z,64.02
2022-08-26T19:07:48.009Z,63.96
2022-08-26T19:09:53.871Z,64.17
2022-08-26T19:11:57.739Z,64.28
2022-08-26T19:14:02.340Z,64.51
2022-08-26T19:16:07.282Z,64.14
2022-08-26T19:18:12.313Z,64.29
2022-08-26T19:20:15.854Z,64.18
2022-08-26T19:22:19.831Z,63.95
2022-08-26T19:24:28.292Z,64.21
2022-08-26T19:26:32.769Z,64.24
2022-08-26T19:28:37.166Z,64.02
2022-08-26T19:30:41.600Z,64.21
2022-08-26T19:32:46.745Z,64.20
2022-08-26T19:34:50.955Z,64.13
2022-08-26T19:36:54.610Z,64.18
2022-08-26T19:38:58.587Z,64.14
2022-08-26T19:41:02.046Z,64.50
2022-08-26T19:43:06.702Z,64.74
2022-08-26T19:45:25.017Z,64.62
2022-08-26T19:47:29.071Z,64.85
2022-08-26T19:49:34.529Z,64.74
2022-08-26T19:51:38.050Z,65.17
2022-08-26T19:53:41.701Z,65.17
2022-08-26T19:55:45.195Z,65.19
2022-08-26T19:57:48.936Z,65.42
2022-08-26T19:59:52.430Z,65.21
2022-08-26T20:02:01.462Z,65.07
2022-08-26T20:04:05.556Z,64.53
2022-08-26T20:06:12.722Z,64.69
2022-08-26T20:08:22.458Z,65.02
2022-08-26T20:10:26.741Z,64.83
2022-08-26T20:12:33.271Z,64.69
2022-08-26T20:14:36.997Z,64.70
2022-08-26T20:16:40.589Z,64.72
2022-08-26T20:19:03.332Z,64.71
2022-08-26T20:21:24.497Z,64.73
2022-08-26T20:23:29.384Z,64.64
2022-08-26T20:25:34.281Z,64.69
2022-08-26T20:27:38.603Z,64.89
2022-08-26T20:29:42.947Z,64.94
2022-08-26T20:31:46.873Z,64.75
2022-08-26T20:33:51.569Z,64.94
2022-08-26T20:35:55.044Z,64.95
2022-08-26T20:37:58.883Z,64.85
2022-08-26T20:40:04.877Z,64.56
2022-08-26T20:42:20.426Z,64.63
2022-08-26T20:44:24.216Z,65.04
2022-08-26T20:46:27.741Z,64.34
2022-08-26T20:48:32.250Z,64.61
2022-08-26T20:50:38.979Z,64.64
2022-08-26T20:52:42.449Z,65.11
2022-08-26T20:54:45.889Z,64.94
2022-08-26T20:56:50.960Z,64.75
2022-08-26T20:58:58.333Z,65.23
2022-08-26T21:01:07.279Z,65.31
2022-08-26T21:03:11.256Z,65.33
2022-08-26T21:05:14.765Z,65.70
2022-08-26T21:07:20.807Z,66.37
2022-08-26T21:09:27.267Z,66.37
2022-08-26T21:11:32.140Z,66.02
2022-08-26T21:13:54.402Z,66.37
2022-08-26T21:16:00.836Z,66.40
2022-08-26T21:18:04.635Z,66.30
2022-08-26T21:20:09.216Z,66.89
2022-08-26T21:22:12.637Z,66.68
2022-08-26T21:24:17.013Z,67.26
2022-08-26T21:26:20.730Z,67.09
2022-08-26T21:28:24.169Z,67.57
2022-08-26T21:30:29.449Z,67.87
2022-08-26T21:32:33.654Z,67.68
2022-08-26T21:34:37.165Z,68.03
2022-08-26T21:36:40.666Z,68.26
2022-08-26T21:38:44.207Z,68.21
2022-08-26T21:40:58.021Z,68.21
2022-08-26T21:43:01.433Z,67.83
2022-08-26T21:45:06.196Z,67.82
2022-08-26T21:47:11.107Z,67.70
2022-08-26T21:49:17.499Z,67.98
2022-08-26T21:51:22.815Z,67.69
2022-08-26T21:53:26.340Z,67.72
2022-08-26T21:55:29.821Z,68.07
2022-08-26T21:57:34.147Z,67.75
2022-08-26T21:59:38.577Z,66.88
2022-08-26T22:01:42.762Z,67.64
2022-08-26T22:03:48.027Z,67.57
2022-08-26T22:05:51.527Z,67.77
2022-08-26T22:07:55.581Z,67.73
2022-08-26T22:09:59.066Z,67.04
2022-08-26T22:12:02.692Z,67.68
2022-08-26T22:16:10.511Z,67.54
2022-08-26T22:18:14.099Z,67.37
2022-08-26T22:20:19.001Z,67.26
2022-08-26T22:22:23.040Z,67.23
2022-08-26T22:24:27.895Z,67.60
2022-08-26T22:26:33.286Z,67.51
2022-08-26T22:28:37.258Z,68.12
2022-08-26T22:30:43.192Z,68.34
2022-08-26T22:32:46.628Z,69.18
2022-08-26T22:34:50.121Z,69.84
2022-08-26T22:36:54.904Z,70.31
2022-08-26T22:38:59.862Z,70.12
2022-08-26T22:41:06.545Z,70.50
2022-08-26T22:43:12.093Z,70.19
2022-08-26T22:45:15.517Z,70.28
2022-08-26T22:47:19.235Z,71.04
2022-08-26T22:49:23.452Z,70.55
2022-08-26T22:51:27.898Z,70.39
2022-08-26T22:53:32.850Z,71.17
2022-08-26T22:55:39.712Z,70.96
2022-08-26T22:57:43.255Z,71.53
2022-08-26T22:59:47.331Z,71.50
2022-08-26T23:01:51.619Z,71.71
2022-08-26T23:03:55.106Z,71.97
2022-08-26T23:05:58.681Z,72.26
2022-08-26T23:08:03.217Z,72.01
2022-08-26T23:10:09.839Z,72.54
2022-08-26T23:12:13.327Z,72.55
2022-08-26T23:14:17.944Z,73.10
2022-08-26T23:16:21.471Z,72.94
2022-08-26T23:18:25.022Z,73.65
2022-08-26T23:20:29.058Z,73.65
2022-08-26T23:22:32.498Z,73.26
2022-08-26T23:24:37.949Z,74.00
2022-08-26T23:26:43.381Z,74.12
2022-08-26T23:28:47.028Z,74.43
2022-08-26T23:30:50.915Z,74.54
2022-08-26T23:32:54.856Z,75.46
2022-08-26T23:34:58.699Z,75.05
2022-08-26T23:37:02.190Z,75.51
2022-08-26T23:39:10.160Z,75.95
2022-08-26T23:41:13.557Z,76.07
2022-08-26T23:43:21.900Z,76.53
2022-08-26T23:45:25.928Z,75.82
2022-08-26T23:47:29.698Z,76.46
2022-08-26T23:49:33.949Z,76.03
2022-08-26T23:51:56.186Z,76.13
2022-08-26T23:53:59.612Z,76.63
2022-08-26T23:56:03.308Z,77.45
2022-08-26T23:58:07.328Z,77.34
